Time;durP1;ratioP1;P1;durP2;ratioP2;P2;SDS_P1;SDS_P2;PMS_P1;PMS_P2;Temp;Humidity;BMP_temperature;BMP_pressure;BME280_temperature;BME280_humidity;BME280_pressure;Samples;Min_cycle;Max_cycle;Signal;HPM_P1;HPM_P2
2023/06/15 04:46:55;;;;;;;5.88;3.67;;;18.30;73.80;;;;;;5468248;23;20055;-74
2023/06/15 04:49:22;;;;;;;5.68;3.90;;;18.40;74.10;;;;;;4974469;28;20035;-73
2023/06/15 04:51:50;;;;;;;13.05;8.43;;;18.40;74.40;;;;;;4965704;29;20023;-73
2023/06/15 04:54:16;;;;;;;7.90;5.70;;;18.50;74.60;;;;;;4976263;28;20245;-73
2023/06/15 04:56:43;;;;;;;21.10;13.65;;;18.60;74.40;;;;;;4966615;29;20059;-74
2023/06/15 04:59:08;;;;;;;11.93;6.07;;;18.60;73.90;;;;;;4966728;28;20023;-73
2023/06/15 05:01:34;;;;;;;6.45;3.92;;;18.70;73.30;;;;;;4965012;29;20074;-70
2023/06/15 05:04:00;;;;;;;10.20;4.10;;;18.60;73.40;;;;;;4981149;28;20324;-70
2023/06/15 05:06:26;;;;;;;9.05;5.85;;;18.60;74.00;;;;;;4966835;28;20102;-74
2023/06/15 05:08:52;;;;;;;8.30;5.30;;;18.60;73.70;;;;;;4965869;28;20031;-74
2023/06/15 05:11:18;;;;;;;6.43;4.00;;;18.60;73.30;;;;;;4965781;29;20217;-74
2023/06/15 05:13:45;;;;;;;5.82;3.83;;;18.60;73.10;;;;;;4965139;29;20058;-74
2023/06/15 05:16:10;;;;;;;5.97;4.00;;;18.40;73.50;;;;;;4965100;29;20023;-71
2023/06/15 05:18:38;;;;;;;6.15;3.85;;;18.30;73.80;;;;;;4965244;29;20019;-71
2023/06/15 05:21:05;;;;;;;4.78;3.28;;;18.20;73.90;;;;;;4979910;28;20114;-72
2023/06/15 05:23:35;;;;;;;5.90;3.75;;;18.20;73.90;;;;;;4983291;28;20027;-71
2023/06/15 05:26:01;;;;;;;6.13;3.72;;;18.20;74.20;;;;;;4985625;28;20035;-72
2023/06/15 05:28:27;;;;;;;4.63;3.40;;;18.20;74.50;;;;;;4983795;28;20310;-72
2023/06/15 05:30:53;;;;;;;7.68;4.13;;;18.20;74.60;;;;;;4985344;28;20223;-71
2023/06/15 05:33:20;;;;;;;5.97;3.55;;;18.20;74.00;;;;;;4983532;28;20041;-72
2023/06/15 05:35:46;;;;;;;8.90;3.80;;;18.30;73.60;;;;;;4983821;28;20038;-72
2023/06/15 05:38:11;;;;;;;8.68;3.83;;;18.40;72.40;;;;;;4974720;28;20245;-72
2023/06/15 05:40:40;;;;;;;6.38;3.95;;;18.50;72.30;;;;;;4973409;28;20304;-72
2023/06/15 05:43:06;;;;;;;6.88;3.58;;;18.50;71.60;;;;;;4979002;28;20054;-71
2023/06/15 05:45:32;;;;;;;6.63;3.97;;;18.50;72.40;;;;;;4969319;28;20309;-71
2023/06/15 05:48:02;;;;;;;7.10;3.72;;;18.50;72.20;;;;;;4963986;29;20329;-72
2023/06/15 05:50:30;;;;;;;7.22;3.78;;;18.50;71.80;;;;;;4964292;29;20026;-72
2023/06/15 05:52:56;;;;;;;7.82;4.25;;;18.60;71.60;;;;;;4964247;29;20031;-72
2023/06/15 05:55:23;;;;;;;8.38;3.70;;;18.60;71.70;;;;;;4957863;28;20031;-72
2023/06/15 05:57:49;;;;;;;6.00;3.80;;;18.70;70.90;;;;;;4946947;29;20098;-72
2023/06/15 06:00:15;;;;;;;6.53;3.42;;;18.70;71.30;;;;;;4957134;29;20035;-72
2023/06/15 06:02:41;;;;;;;7.03;3.90;;;18.80;71.00;;;;;;4951399;28;20020;-72
2023/06/15 06:05:09;;;;;;;8.27;3.58;;;18.80;71.10;;;;;;4944599;29;20063;-72
2023/06/15 06:07:35;;;;;;;8.88;3.58;;;18.80;71.70;;;;;;4963178;29;20074;-72
2023/06/15 06:10:01;;;;;;;11.52;4.00;;;18.90;70.80;;;;;;4964726;29;20047;-71
2023/06/15 06:12:28;;;;;;;7.10;3.72;;;18.90;70.90;;;;;;4963424;29;20036;-71
2023/06/15 06:14:54;;;;;;;5.78;3.60;;;19.00;70.80;;;;;;4956087;29;20313;-71
2023/06/15 06:17:19;;;;;;;7.07;3.67;;;19.20;70.10;;;;;;4944773;29;20336;-73
2023/06/15 06:19:48;;;;;;;9.48;3.40;;;19.20;69.00;;;;;;4963503;29;20256;-73
2023/06/15 06:22:14;;;;;;;6.73;3.83;;;19.20;69.60;;;;;;4964349;28;20042;-71
2023/06/15 06:24:40;;;;;;;5.75;3.53;;;19.40;70.00;;;;;;4963385;29;20242;-71
2023/06/15 06:27:07;;;;;;;6.63;3.42;;;19.50;69.20;;;;;;4945751;28;20035;-69
2023/06/15 06:29:33;;;;;;;9.23;3.90;;;19.50;69.30;;;;;;4944129;29;20090;-68
2023/06/15 06:31:59;;;;;;;5.97;3.42;;;19.60;69.20;;;;;;4945085;29;20329;-69
2023/06/15 06:34:24;;;;;;;5.15;3.47;;;19.70;69.00;;;;;;4947910;29;20082;-68
2023/06/15 06:36:50;;;;;;;5.55;3.13;;;19.70;68.70;;;;;;4964474;29;20058;-69
2023/06/15 06:39:16;;;;;;;6.80;3.53;;;19.70;68.60;;;;;;4968200;28;20035;-69
2023/06/15 06:41:42;;;;;;;5.18;3.55;;;19.80;68.50;;;;;;4959301;29;20042;-69
2023/06/15 06:44:11;;;;;;;5.18;3.30;;;19.80;68.70;;;;;;4964480;29;20027;-70
2023/06/15 06:46:37;;;;;;;4.65;3.28;;;19.90;68.80;;;;;;4956621;28;20310;-69
2023/06/15 06:49:03;;;;;;;5.50;3.47;;;20.00;68.30;;;;;;4945361;29;20045;-69
2023/06/15 06:51:28;;;;;;;4.97;3.17;;;20.00;68.40;;;;;;4953561;29;20027;-69
2023/06/15 06:53:54;;;;;;;6.95;3.60;;;20.10;67.90;;;;;;4959939;29;20051;-68
2023/06/15 06:56:20;;;;;;;7.03;3.90;;;20.10;68.20;;;;;;4946339;29;20148;-69
2023/06/15 06:58:45;;;;;;;6.05;3.60;;;20.20;68.30;;;;;;4945622;29;20024;-67
2023/06/15 07:01:11;;;;;;;4.85;3.03;;;20.30;68.40;;;;;;4945477;29;20031;-67
2023/06/15 07:03:39;;;;;;;4.80;3.55;;;20.30;68.00;;;;;;4945453;29;20092;-69
2023/06/15 07:06:04;;;;;;;6.03;3.63;;;20.40;67.70;;;;;;4949137;29;20254;-71
2023/06/15 07:08:30;;;;;;;4.78;3.42;;;20.50;67.60;;;;;;4948439;29;20059;-68
2023/06/15 07:10:56;;;;;;;8.40;4.55;;;20.60;67.20;;;;;;4949236;29;20222;-69
2023/06/15 07:13:22;;;;;;;6.63;4.13;;;20.60;67.30;;;;;;4947105;29;20054;-70
2023/06/15 07:15:49;;;;;;;7.60;3.78;;;20.70;67.50;;;;;;4948877;29;20086;-69
2023/06/15 07:18:15;;;;;;;7.55;3.28;;;20.80;67.40;;;;;;4948585;29;20103;-69
2023/06/15 07:20:41;;;;;;;6.80;3.72;;;20.80;67.00;;;;;;4948336;29;20389;-70
2023/06/15 07:23:07;;;;;;;7.10;4.20;;;20.80;66.90;;;;;;4948399;29;20032;-71
2023/06/15 07:25:33;;;;;;;8.15;3.72;;;20.90;66.90;;;;;;4948145;29;20040;-70
2023/06/15 07:27:59;;;;;;;5.82;3.63;;;21.10;66.30;;;;;;4948812;29;20038;-70
2023/06/15 07:30:24;;;;;;;7.78;3.50;;;21.10;66.10;;;;;;4948247;29;20042;-70
2023/06/15 07:32:50;;;;;;;6.78;3.58;;;21.20;66.40;;;;;;4948359;29;20035;-71
2023/06/15 07:35:16;;;;;;;5.57;3.78;;;21.40;66.10;;;;;;4948409;29;20094;-69
2023/06/15 07:37:41;;;;;;;5.05;3.33;;;21.50;65.90;;;;;;4948063;29;20031;-71
2023/06/15 07:40:08;;;;;;;6.07;3.38;;;21.50;65.80;;;;;;4949303;29;20028;-70
2023/06/15 07:42:33;;;;;;;9.65;3.72;;;21.50;65.30;;;;;;4947534;29;20285;-70
2023/06/15 07:44:59;;;;;;;6.35;3.25;;;21.60;64.90;;;;;;4947935;29;20099;-70
2023/06/15 07:47:26;;;;;;;7.18;3.38;;;21.60;65.20;;;;;;4962118;29;20043;-69
2023/06/15 07:49:51;;;;;;;7.53;3.80;;;21.60;65.20;;;;;;4967749;29;20027;-70
2023/06/15 07:52:17;;;;;;;4.80;2.95;;;21.70;65.60;;;;;;4967383;29;20055;-70
2023/06/15 07:54:43;;;;;;;5.80;3.47;;;21.90;65.20;;;;;;4966822;29;20027;-69
2023/06/15 07:57:08;;;;;;;7.40;3.80;;;21.90;64.90;;;;;;4966939;29;20027;-70
2023/06/15 07:59:34;;;;;;;5.68;3.60;;;22.00;64.60;;;;;;4966719;29;20031;-71
2023/06/15 08:02:02;;;;;;;5.75;3.67;;;22.00;65.50;;;;;;4968024;29;20026;-71
2023/06/15 08:04:28;;;;;;;7.47;3.53;;;22.10;64.60;;;;;;4967431;29;20064;-72
2023/06/15 08:06:54;;;;;;;5.32;3.92;;;22.20;64.40;;;;;;4982864;28;20325;-70
2023/06/15 08:09:22;;;;;;;5.10;3.30;;;22.20;64.30;;;;;;4983105;28;20086;-70
2023/06/15 08:11:49;;;;;;;5.90;3.10;;;22.30;63.70;;;;;;4967631;29;20035;-70
2023/06/15 08:14:14;;;;;;;5.57;3.47;;;22.30;63.80;;;;;;4981789;28;20474;-71
2023/06/15 08:16:40;;;;;;;9.85;3.83;;;22.40;64.00;;;;;;4966887;29;20087;-72
2023/06/15 08:19:06;;;;;;;9.48;3.88;;;22.50;64.20;;;;;;4966701;29;20027;-70
2023/06/15 08:21:32;;;;;;;7.15;3.53;;;22.70;63.30;;;;;;4966112;29;20027;-74
2023/06/15 08:23:58;;;;;;;6.13;3.95;;;22.80;62.60;;;;;;4966935;29;20035;-72
2023/06/15 08:26:24;;;;;;;5.50;3.47;;;22.90;62.50;;;;;;4966171;29;20321;-71
2023/06/15 08:28:50;;;;;;;6.13;3.20;;;23.00;62.80;;;;;;4965447;29;20211;-70
2023/06/15 08:31:15;;;;;;;4.70;3.13;;;23.00;62.10;;;;;;4966357;29;20357;-73
2023/06/15 08:33:41;;;;;;;4.47;3.33;;;23.10;61.60;;;;;;4965613;29;20035;-72
2023/06/15 08:36:07;;;;;;;6.40;3.42;;;23.20;61.80;;;;;;4966164;29;20031;-70
2023/06/15 08:38:33;;;;;;;9.20;3.90;;;23.40;61.60;;;;;;4960543;28;20026;-71
2023/06/15 08:40:58;;;;;;;5.72;3.65;;;23.40;61.20;;;;;;4946900;29;20313;-73
2023/06/15 08:43:26;;;;;;;4.53;3.15;;;23.40;61.20;;;;;;4946641;29;20221;-71
2023/06/15 08:45:54;;;;;;;5.07;3.53;;;23.50;60.80;;;;;;4947131;29;20031;-69
2023/06/15 08:48:22;;;;;;;7.25;3.20;;;23.50;61.80;;;;;;4947186;29;20040;-72
2023/06/15 08:50:49;;;;;;;7.68;3.45;;;23.50;61.10;;;;;;4947091;29;20024;-69
2023/06/15 08:53:16;;;;;;;5.68;3.60;;;23.70;62.00;;;;;;4946789;29;20373;-72
2023/06/15 08:55:42;;;;;;;5.03;3.35;;;23.80;61.20;;;;;;4946898;29;20047;-71
2023/06/15 08:58:08;;;;;;;5.18;3.10;;;23.80;61.30;;;;;;4945782;29;20309;-70
2023/06/15 09:00:35;;;;;;;6.20;3.00;;;23.80;61.20;;;;;;4946063;29;20094;-70
2023/06/15 09:03:04;;;;;;;6.63;3.90;;;23.90;61.30;;;;;;4946830;29;20079;-70
2023/06/15 09:05:30;;;;;;;6.68;2.88;;;24.00;61.40;;;;;;4946469;29;20023;-70
2023/06/15 09:07:58;;;;;;;6.07;3.90;;;24.00;61.10;;;;;;4946934;29;20336;-72
2023/06/15 09:10:25;;;;;;;12.32;7.28;;;24.10;60.60;;;;;;4946098;29;20023;-72
2023/06/15 09:12:54;;;;;;;5.63;3.50;;;24.10;59.40;;;;;;4946693;29;20094;-69
2023/06/15 09:15:25;;;;;;;12.45;4.00;;;24.00;60.20;;;;;;4946357;29;20036;-70
2023/06/15 09:17:52;;;;;;;7.40;3.40;;;24.10;60.20;;;;;;4946658;29;20094;-70
2023/06/15 09:20:19;;;;;;;5.68;3.22;;;24.20;60.20;;;;;;4946690;29;20038;-71
2023/06/15 09:22:45;;;;;;;4.95;3.10;;;24.20;59.10;;;;;;4945829;29;20047;-71
2023/06/15 09:25:13;;;;;;;5.10;3.10;;;24.20;59.70;;;;;;4946426;29;20050;-70
2023/06/15 09:27:38;;;;;;;5.97;3.30;;;24.40;58.70;;;;;;4945374;29;20046;-70
2023/06/15 09:30:07;;;;;;;7.55;3.25;;;24.40;58.40;;;;;;4946414;29;20055;-69
2023/06/15 09:32:32;;;;;;;6.40;3.03;;;24.50;59.00;;;;;;4945776;29;20316;-71
2023/06/15 09:34:59;;;;;;;4.93;2.90;;;24.60;58.40;;;;;;4946188;29;20100;-72
2023/06/15 09:37:29;;;;;;;7.20;2.95;;;24.60;57.30;;;;;;4945532;29;20065;-72
2023/06/15 09:39:56;;;;;;;3.92;2.75;;;24.60;58.00;;;;;;4962088;29;20035;-71
2023/06/15 09:42:26;;;;;;;6.65;2.50;;;24.60;57.70;;;;;;4965405;28;20035;-72
2023/06/15 09:45:00;;;;;;;5.53;2.63;;;24.70;55.10;;;;;;4965208;29;20070;-71
2023/06/15 09:47:30;;;;;;;13.02;3.22;;;24.80;55.90;;;;;;4964366;28;20043;-72
2023/06/15 09:49:56;;;;;;;5.03;3.00;;;24.90;56.00;;;;;;4965320;28;20087;-69
2023/06/15 09:52:22;;;;;;;7.90;3.10;;;24.90;55.50;;;;;;4965359;28;20116;-71
2023/06/15 09:54:48;;;;;;;4.47;2.70;;;25.00;55.10;;;;;;4964871;28;20034;-72
2023/06/15 09:57:18;;;;;;;6.40;3.15;;;25.10;55.80;;;;;;4964080;29;20030;-71
2023/06/15 09:59:48;;;;;;;7.28;2.60;;;25.30;55.40;;;;;;4963365;28;20087;-71
2023/06/15 10:02:16;;;;;;;6.20;2.80;;;25.50;54.70;;;;;;4965017;29;20031;-72
2023/06/15 10:04:45;;;;;;;10.07;3.22;;;25.70;54.50;;;;;;4964353;28;20105;-71
2023/06/15 10:07:12;;;;;;;4.90;2.60;;;25.60;54.30;;;;;;4964805;29;20035;-71
2023/06/15 10:09:45;;;;;;;3.28;2.28;;;25.70;53.40;;;;;;4963792;28;20194;-69
2023/06/15 10:12:22;;;;;;;3.50;2.53;;;25.90;52.60;;;;;;4959972;28;20034;-71
2023/06/15 10:15:03;;;;;;;3.83;2.42;;;25.60;51.80;;;;;;4959602;29;20105;-72
2023/06/15 10:17:32;;;;;;;3.92;2.30;;;25.50;51.40;;;;;;4945667;29;20040;-71
2023/06/15 10:20:07;;;;;;;3.40;2.63;;;25.80;51.50;;;;;;4949824;29;20233;-70
2023/06/15 10:22:34;;;;;;;5.78;3.55;;;25.70;52.20;;;;;;4964467;28;20024;-70
2023/06/15 10:25:01;;;;;;;3.67;2.17;;;25.90;53.30;;;;;;4964538;28;20371;-70
2023/06/15 10:27:27;;;;;;;4.75;2.63;;;26.20;53.00;;;;;;4964512;28;20031;-69
2023/06/15 10:30:15;;;;;;;5.68;2.60;;;26.30;51.20;;;;;;4948555;29;20051;-75
2023/06/15 10:33:06;;;;;;;3.78;2.50;;;26.30;51.20;;;;;;4945128;29;20043;-71
2023/06/15 10:35:37;;;;;;;4.45;2.50;;;26.60;52.30;;;;;;4943670;29;20245;-71
2023/06/15 10:38:18;;;;;;;7.10;2.70;;;26.70;52.10;;;;;;4945334;29;20078;-74
2023/06/15 10:40:47;;;;;;;4.70;2.50;;;26.90;51.20;;;;;;4964141;29;20035;-71
2023/06/15 10:43:18;;;;;;;5.50;2.55;;;27.00;52.30;;;;;;4964412;29;20046;-71
2023/06/15 10:45:44;;;;;;;4.18;2.42;;;27.00;52.30;;;;;;4959500;29;20031;-73
2023/06/15 10:48:20;;;;;;;3.97;2.70;;;27.00;51.10;;;;;;4964348;28;20035;-72
2023/06/15 10:50:50;;;;;;;4.25;2.20;;;27.30;50.80;;;;;;4964184;29;20031;-72
2023/06/15 10:53:41;;;;;;;3.22;2.25;;;27.50;50.20;;;;;;4964547;29;20031;-73
2023/06/15 10:56:13;;;;;;;3.90;2.35;;;28.00;50.40;;;;;;4964834;28;20035;-71
2023/06/15 10:58:54;;;;;;;6.28;2.78;;;28.30;49.60;;;;;;4963559;28;20031;-72
2023/06/15 11:01:32;;;;;;;5.15;2.15;;;28.40;49.40;;;;;;4964155;29;20039;-69
2023/06/15 11:04:18;;;;;;;4.28;2.65;;;28.50;49.20;;;;;;4964247;28;20031;-70
2023/06/15 11:06:55;;;;;;;4.13;2.53;;;28.60;49.50;;;;;;4963411;29;20134;-71
2023/06/15 11:09:24;;;;;;;4.10;2.55;;;28.90;49.50;;;;;;4964161;28;20265;-70
2023/06/15 11:11:50;;;;;;;3.78;2.35;;;28.90;49.50;;;;;;4963857;28;20031;-72
2023/06/15 11:14:19;;;;;;;5.68;2.80;;;28.80;48.60;;;;;;4964039;29;20033;-73
2023/06/15 11:16:45;;;;;;;5.38;3.15;;;28.90;48.40;;;;;;4963910;29;20098;-72
2023/06/15 11:19:14;;;;;;;5.38;2.55;;;28.70;48.90;;;;;;4963531;29;20050;-73
2023/06/15 11:21:41;;;;;;;4.97;2.03;;;28.70;49.30;;;;;;4944668;29;20027;-72
2023/06/15 11:24:13;;;;;;;5.82;2.22;;;28.50;49.10;;;;;;4943765;29;20032;-71
2023/06/15 11:26:43;;;;;;;4.22;2.28;;;28.30;48.20;;;;;;4959061;29;20054;-70
2023/06/15 11:29:12;;;;;;;3.53;2.20;;;28.30;48.10;;;;;;4951815;29;20041;-70
2023/06/15 11:31:41;;;;;;;2.95;1.85;;;28.40;47.60;;;;;;4964022;29;20023;-72
2023/06/15 11:34:10;;;;;;;8.77;2.65;;;28.50;47.20;;;;;;4951642;28;20015;-73
2023/06/15 11:36:37;;;;;;;3.67;2.20;;;28.60;46.90;;;;;;4944395;29;20027;-72
2023/06/15 11:39:07;;;;;;;6.05;2.08;;;29.20;46.40;;;;;;4945804;29;20035;-73
2023/06/15 11:41:32;;;;;;;12.52;2.40;;;30.00;46.20;;;;;;4943938;29;20051;-72
2023/06/15 11:43:58;;;;;;;4.50;2.50;;;30.40;45.00;;;;;;4944722;29;20027;-72
2023/06/15 11:46:25;;;;;;;5.57;2.03;;;31.00;45.30;;;;;;4954064;29;20039;-70
2023/06/15 11:48:58;;;;;;;5.32;2.13;;;31.80;44.90;;;;;;4963841;28;20043;-71
2023/06/15 11:51:24;;;;;;;3.35;2.00;;;32.30;44.00;;;;;;4967660;28;20051;-73
2023/06/15 11:53:52;;;;;;;3.65;2.10;;;32.10;43.40;;;;;;4966896;29;20039;-72
2023/06/15 11:56:18;;;;;;;2.70;2.05;;;32.20;43.30;;;;;;4966564;29;20136;-71
2023/06/15 11:58:47;;;;;;;4.03;2.40;;;31.90;43.30;;;;;;4962636;29;20027;-71
2023/06/15 12:01:15;;;;;;;3.88;1.95;;;31.60;43.70;;;;;;4947033;29;20083;-71
2023/06/15 12:03:49;;;;;;;3.85;2.13;;;32.20;44.10;;;;;;4947554;29;20198;-72
2023/06/15 12:06:19;;;;;;;4.30;1.90;;;32.90;43.90;;;;;;4948391;29;20046;-73
2023/06/15 12:08:46;;;;;;;5.72;1.90;;;33.50;43.60;;;;;;4948073;29;20079;-71
2023/06/15 12:11:12;;;;;;;3.58;1.90;;;34.60;43.70;;;;;;4948099;29;20032;-73
2023/06/15 12:13:39;;;;;;;3.78;2.08;;;35.90;42.60;;;;;;4958485;28;20042;-70
2023/06/15 12:16:06;;;;;;;2.75;1.88;;;37.00;41.40;;;;;;4967036;28;20312;-74
2023/06/15 12:18:32;;;;;;;6.10;2.20;;;38.00;41.10;;;;;;4967318;29;20043;-73
2023/06/15 12:21:01;;;;;;;4.20;1.80;;;38.20;40.30;;;;;;4952677;29;20118;-71
2023/06/15 12:23:32;;;;;;;6.25;3.95;;;37.10;40.60;;;;;;4947764;29;20020;-73
2023/06/15 12:26:00;;;;;;;6.25;2.47;;;35.80;41.40;;;;;;4959566;29;20023;-71
2023/06/15 12:28:26;;;;;;;;;;;34.90;41.90;;;;;;4967716;28;20058;-72
2023/06/15 12:30:57;;;;;;;7.15;2.10;;;34.90;42.40;;;;;;4966651;29;20217;-73
2023/06/15 12:33:29;;;;;;;4.70;2.25;;;36.10;41.90;;;;;;4964540;28;20074;-70
2023/06/15 12:35:56;;;;;;;3.80;2.20;;;36.10;40.70;;;;;;4965072;29;20054;-74
2023/06/15 12:38:24;;;;;;;5.05;1.90;;;36.10;41.80;;;;;;4965502;29;20339;-73
2023/06/15 12:40:50;;;;;;;14.18;2.80;;;35.90;41.10;;;;;;4966238;28;20031;-74
2023/06/15 12:43:16;;;;;;;5.18;2.20;;;36.60;40.60;;;;;;4966714;29;20023;-72
2023/06/15 12:45:42;;;;;;;4.82;2.65;;;37.20;40.70;;;;;;4966441;28;20027;-73
2023/06/15 12:48:08;;;;;;;6.85;6.15;;;36.40;40.60;;;;;;4966797;29;20043;-74
2023/06/15 12:50:34;;;;;;;4.75;2.45;;;35.10;41.00;;;;;;4966453;29;20228;-76
2023/06/15 12:53:00;;;;;;;2.83;2.08;;;36.10;41.20;;;;;;4966748;29;20023;-74
2023/06/15 12:55:27;;;;;;;3.20;2.25;;;37.60;40.10;;;;;;4966268;28;20140;-74
2023/06/15 12:57:54;;;;;;;3.60;2.22;;;38.90;39.10;;;;;;4966266;29;20317;-74
2023/06/15 13:00:28;;;;;;;3.27;1.90;;;40.20;38.70;;;;;;4966102;28;20028;-74
2023/06/15 13:02:54;;;;;;;7.43;2.22;;;41.40;37.40;;;;;;4964304;29;20331;-75
2023/06/15 13:05:20;;;;;;;3.03;1.88;;;41.70;37.50;;;;;;4966226;29;20042;-75
2023/06/15 13:07:46;;;;;;;5.50;1.90;;;42.50;36.80;;;;;;4966106;28;20039;-75
2023/06/15 13:10:13;;;;;;;6.55;2.10;;;42.50;36.40;;;;;;4966450;28;20313;-73
2023/06/15 13:12:39;;;;;;;3.33;1.40;;;43.80;36.70;;;;;;4965457;28;20041;-74
2023/06/15 13:15:06;;;;;;;3.72;1.85;;;44.50;36.00;;;;;;4965915;28;20217;-74
2023/06/15 13:17:36;;;;;;;6.18;1.83;;;44.50;36.20;;;;;;4966239;28;20042;-74
2023/06/15 13:20:07;;;;;;;4.50;1.60;;;44.70;35.70;;;;;;4958520;29;20214;-76
2023/06/15 13:22:34;;;;;;;3.45;1.60;;;42.90;35.40;;;;;;4947146;29;20031;-75
2023/06/15 13:24:59;;;;;;;4.15;1.67;;;41.80;36.60;;;;;;4950663;29;20047;-75
2023/06/15 13:27:25;;;;;;;2.30;1.55;;;41.60;36.70;;;;;;4965676;28;20058;-72
2023/06/15 13:29:51;;;;;;;5.25;1.70;;;41.90;35.90;;;;;;4965054;29;20031;-73
2023/06/15 13:32:17;;;;;;;3.80;1.50;;;42.80;36.30;;;;;;4966141;28;20094;-74
2023/06/15 13:34:43;;;;;;;2.58;1.45;;;43.70;35.50;;;;;;4964983;28;20039;-72
2023/06/15 13:37:15;;;;;;;2.53;1.67;;;44.20;35.00;;;;;;4965605;28;20035;-71
2023/06/15 13:39:40;;;;;;;6.35;1.70;;;44.30;35.40;;;;;;4949922;28;20286;-73
2023/06/15 13:42:10;;;;;;;4.15;1.80;;;42.20;36.00;;;;;;4946287;29;20036;-71
2023/06/15 13:44:36;;;;;;;4.53;2.00;;;39.90;37.10;;;;;;4946098;29;20039;-75
2023/06/15 13:47:02;;;;;;;4.28;1.88;;;37.40;38.20;;;;;;4946560;29;20055;-74
2023/06/15 13:49:27;;;;;;;3.67;1.92;;;35.70;39.80;;;;;;4946395;29;20087;-74
2023/06/15 13:51:53;;;;;;;4.10;2.10;;;34.60;40.50;;;;;;4945714;29;20035;-72
2023/06/15 13:54:20;;;;;;;4.18;2.08;;;35.00;40.70;;;;;;4946231;29;20032;-74
2023/06/15 13:56:46;;;;;;;6.30;2.00;;;36.40;39.80;;;;;;4946068;29;20036;-73
2023/06/15 13:59:12;;;;;;;4.93;2.17;;;36.40;40.20;;;;;;4946095;29;20074;-70
2023/06/15 14:01:38;;;;;;;4.43;1.92;;;37.70;39.00;;;;;;4945642;29;20039;-71
2023/06/15 14:04:04;;;;;;;3.35;1.70;;;38.80;38.40;;;;;;4945892;29;20071;-71
2023/06/15 14:06:29;;;;;;;4.38;1.80;;;39.10;37.80;;;;;;4944807;29;20035;-72
2023/06/15 14:08:55;;;;;;;3.42;1.80;;;40.30;37.60;;;;;;4945961;29;20058;-73
2023/06/15 14:11:21;;;;;;;3.42;1.50;;;41.70;36.90;;;;;;4946162;29;20019;-72
2023/06/15 14:13:50;;;;;;;5.15;2.05;;;42.90;36.10;;;;;;4957493;28;20023;-74
2023/06/15 14:16:19;;;;;;;2.30;1.40;;;43.60;35.80;;;;;;4964917;29;20027;-71
2023/06/15 14:18:51;;;;;;;3.38;1.60;;;43.70;35.60;;;;;;4964589;28;20028;-74
2023/06/15 14:21:18;;;;;;;3.47;1.60;;;44.20;35.50;;;;;;4947775;28;20385;-71
2023/06/15 14:23:44;;;;;;;3.80;1.85;;;45.20;35.20;;;;;;4945240;29;20222;-70
2023/06/15 14:26:10;;;;;;;3.38;1.42;;;45.70;35.00;;;;;;4958841;29;20308;-70
2023/06/15 14:28:36;;;;;;;3.33;1.70;;;45.70;34.20;;;;;;4963774;29;20344;-70
2023/06/15 14:31:03;;;;;;;5.50;1.58;;;43.50;34.60;;;;;;4964032;28;20494;-72
2023/06/15 14:33:29;;;;;;;3.42;1.65;;;40.90;35.70;;;;;;4964818;28;20087;-70
2023/06/15 14:35:55;;;;;;;4.18;2.42;;;38.60;36.90;;;;;;4964176;28;20095;-71
2023/06/15 14:38:21;;;;;;;2.30;1.73;;;37.50;38.50;;;;;;4959963;29;20039;-73
2023/06/15 14:40:47;;;;;;;3.55;1.70;;;36.30;38.30;;;;;;4944876;29;20229;-73
2023/06/15 14:43:13;;;;;;;3.03;1.83;;;35.10;39.50;;;;;;4945465;29;20032;-71
2023/06/15 14:45:39;;;;;;;2.70;2.08;;;34.20;40.20;;;;;;4945188;29;20094;-73
2023/06/15 14:48:05;;;;;;;3.55;1.60;;;33.30;40.50;;;;;;4960256;29;20147;-72
2023/06/15 14:50:30;;;;;;;4.90;1.80;;;34.80;40.20;;;;;;4945239;29;20071;-70
2023/06/15 14:52:56;;;;;;;4.45;1.50;;;37.40;38.60;;;;;;4944970;29;20043;-73
2023/06/15 14:55:22;;;;;;;2.40;1.80;;;39.20;37.40;;;;;;4945083;29;20142;-73
2023/06/15 14:57:48;;;;;;;2.00;1.45;;;40.60;36.80;;;;;;4945109;29;20030;-70
2023/06/15 15:00:14;;;;;;;2.70;1.50;;;42.40;35.90;;;;;;4945580;29;20071;-72
2023/06/15 15:02:43;;;;;;;2.33;1.47;;;42.80;35.10;;;;;;4945016;29;20094;-72
2023/06/15 15:05:09;;;;;;;3.13;1.83;;;42.90;35.60;;;;;;4945338;29;20428;-70
2023/06/15 15:07:35;;;;;;;4.50;1.50;;;43.70;35.00;;;;;;4945166;29;20111;-70
2023/06/15 15:10:01;;;;;;;2.58;1.50;;;44.30;34.90;;;;;;4944710;29;20278;-72
2023/06/15 15:12:29;;;;;;;3.75;1.55;;;44.70;34.00;;;;;;4946858;28;20066;-72
2023/06/15 15:14:56;;;;;;;4.22;1.50;;;45.00;33.80;;;;;;4963800;29;20086;-71
2023/06/15 15:17:21;;;;;;;2.50;1.30;;;44.70;33.80;;;;;;4964217;28;20035;-73
2023/06/15 15:19:47;;;;;;;2.25;1.25;;;45.00;33.30;;;;;;4958801;29;20187;-73
2023/06/15 15:22:13;;;;;;;2.13;1.38;;;45.00;33.50;;;;;;4945208;29;20016;-72
2023/06/15 15:24:41;;;;;;;2.30;1.40;;;44.90;33.80;;;;;;4948014;29;20079;-74
2023/06/15 15:27:07;;;;;;;2.00;1.33;;;45.80;33.40;;;;;;4968091;29;20043;-73
2023/06/15 15:29:32;;;;;;;1.98;1.33;;;46.10;33.10;;;;;;4968131;29;20345;-71
2023/06/15 15:31:58;;;;;;;1.73;1.20;;;46.40;33.10;;;;;;4967533;29;20198;-72
2023/06/15 15:34:25;;;;;;;3.67;1.77;;;46.20;32.60;;;;;;4968089;28;20049;-71
2023/06/15 15:36:50;;;;;;;3.03;1.30;;;46.00;32.60;;;;;;4967242;29;20257;-72
2023/06/15 15:39:16;;;;;;;2.25;1.67;;;45.70;32.90;;;;;;4955604;28;20031;-70
2023/06/15 15:41:42;;;;;;;2.40;1.47;;;45.80;32.60;;;;;;4948354;29;20024;-73
2023/06/15 15:44:08;;;;;;;5.10;2.43;;;46.50;32.60;;;;;;4948681;29;20028;-71
2023/06/15 15:46:34;;;;;;;4.05;1.30;;;46.50;32.50;;;;;;4948575;29;20043;-73
2023/06/15 15:49:00;;;;;;;3.17;1.30;;;45.60;32.50;;;;;;4948426;29;20042;-73
2023/06/15 15:51:26;;;;;;;3.33;1.60;;;45.70;32.50;;;;;;4948661;29;20043;-72
2023/06/15 15:53:51;;;;;;;2.58;1.52;;;45.60;32.60;;;;;;4947886;29;20070;-72
2023/06/15 15:56:17;;;;;;;5.43;2.97;;;44.70;33.00;;;;;;4948605;29;20325;-71
2023/06/15 15:58:43;;;;;;;2.95;1.95;;;44.70;33.20;;;;;;4947788;29;20040;-71
2023/06/15 16:01:17;;;;;;;4.65;1.40;;;45.50;33.40;;;;;;4948255;29;20042;-72
2023/06/15 16:03:43;;;;;;;2.58;1.67;;;46.00;32.40;;;;;;4947685;29;20027;-73
2023/06/15 16:06:09;;;;;;;3.42;1.55;;;44.90;32.30;;;;;;4948319;29;20140;-71
2023/06/15 16:08:35;;;;;;;3.53;1.60;;;44.60;32.60;;;;;;4948200;29;20043;-72
2023/06/15 16:11:02;;;;;;;3.28;2.75;;;44.60;32.80;;;;;;4948262;29;20035;-71
2023/06/15 16:13:29;;;;;;;6.05;4.10;;;44.20;32.60;;;;;;4957785;28;20031;-71
2023/06/15 16:15:55;;;;;;;2.90;1.90;;;44.40;32.70;;;;;;4966787;29;20065;-71
2023/06/15 16:18:20;;;;;;;4.45;1.88;;;45.30;32.80;;;;;;4967339;28;20038;-71
2023/06/15 16:20:46;;;;;;;2.83;1.65;;;44.70;32.60;;;;;;4952425;29;20047;-73
2023/06/15 16:23:12;;;;;;;3.20;1.58;;;43.50;32.80;;;;;;4960764;29;20031;-71
2023/06/15 16:25:37;;;;;;;2.28;1.67;;;42.60;32.90;;;;;;4972259;28;20031;-73
2023/06/15 16:28:04;;;;;;;3.00;1.77;;;42.40;33.30;;;;;;4966728;29;20058;-72
2023/06/15 16:30:29;;;;;;;3.58;1.60;;;42.00;33.20;;;;;;4967303;29;20078;-71
2023/06/15 16:32:55;;;;;;;2.40;1.60;;;42.60;33.30;;;;;;4966495;29;20027;-70
2023/06/15 16:35:21;;;;;;;3.65;1.60;;;43.50;33.20;;;;;;4966487;28;20127;-72
2023/06/15 16:37:47;;;;;;;2.53;1.60;;;44.40;32.90;;;;;;4966385;28;20058;-71
2023/06/15 16:40:12;;;;;;;3.22;1.55;;;44.70;32.10;;;;;;4948353;29;20031;-72
2023/06/15 16:42:38;;;;;;;2.60;1.50;;;44.70;32.00;;;;;;4947461;29;20039;-72
2023/06/15 16:45:05;;;;;;;6.68;1.90;;;44.50;32.20;;;;;;4946736;29;20294;-70
2023/06/15 16:47:31;;;;;;;2.10;1.52;;;44.10;32.10;;;;;;4946944;29;20365;-73
2023/06/15 16:49:58;;;;;;;2.50;1.65;;;44.30;32.20;;;;;;4946918;29;20024;-72
2023/06/15 16:52:25;;;;;;;3.67;1.52;;;43.90;32.40;;;;;;4947063;29;20037;-70
2023/06/15 16:54:51;;;;;;;2.65;2.35;;;43.60;32.40;;;;;;4946435;29;20032;-72
2023/06/15 16:57:19;;;;;;;2.60;1.90;;;43.10;32.40;;;;;;4946864;29;20039;-70
2023/06/15 16:59:45;;;;;;;2.35;1.70;;;43.40;32.60;;;;;;4947104;29;20658;-71
2023/06/15 17:02:15;;;;;;;3.22;1.42;;;43.50;32.50;;;;;;4946459;29;20062;-70
2023/06/15 17:04:41;;;;;;;2.40;1.65;;;43.10;32.60;;;;;;4947031;29;20366;-71
2023/06/15 17:07:09;;;;;;;2.50;1.60;;;43.20;32.90;;;;;;4946617;29;20051;-71
2023/06/15 17:09:38;;;;;;;3.72;1.58;;;43.10;32.70;;;;;;4946418;29;20199;-70
2023/06/15 17:12:04;;;;;;;3.15;1.40;;;42.90;32.70;;;;;;4946380;29;20074;-72
2023/06/15 17:14:30;;;;;;;2.22;1.60;;;43.10;33.20;;;;;;4964580;28;20333;-71
2023/06/15 17:16:55;;;;;;;3.67;1.58;;;43.10;32.90;;;;;;4965204;29;20049;-72
2023/06/15 17:19:21;;;;;;;7.03;4.57;;;43.00;32.60;;;;;;4965284;29;20050;-73
2023/06/15 17:21:47;;;;;;;2.47;1.52;;;43.10;32.50;;;;;;4944837;28;20342;-72
2023/06/15 17:24:13;;;;;;;3.30;1.70;;;42.90;32.40;;;;;;4946353;29;20027;-73
2023/06/15 17:26:40;;;;;;;2.83;2.00;;;42.60;32.30;;;;;;4946002;29;20220;-73
2023/06/15 17:29:08;;;;;;;2.80;1.92;;;42.00;32.60;;;;;;4945974;29;20028;-70
2023/06/15 17:31:34;;;;;;;2.60;1.73;;;41.50;32.70;;;;;;4945935;29;20031;-71